Time;durP1;ratioP1;P1;durP2;ratioP2;P2;SDS_P1;SDS_P2;PMS_P1;PMS_P2;Temp;Humidity;BMP_temperature;BMP_pressure;BME280_temperature;BME280_humidity;BME280_pressure;Samples;Min_cycle;Max_cycle;Signal;HPM_P1;HPM_P2
2024/04/03 00:01:40;;;;;;;1.92;1.40;;;7.00;86.60;;;;;;5057529;28;20052;-76
2024/04/03 00:04:10;;;;;;;2.60;1.42;;;6.90;85.80;;;;;;5054963;28;20121;-76
2024/04/03 00:06:39;;;;;;;2.65;1.67;;;6.90;87.70;;;;;;5038299;28;20056;-75
2024/04/03 00:09:05;;;;;;;2.90;1.40;;;6.90;87.80;;;;;;5054917;28;20049;-76
2024/04/03 00:11:30;;;;;;;2.45;1.60;;;6.90;89.50;;;;;;5038379;28;20044;-76
2024/04/03 00:13:58;;;;;;;3.10;1.30;;;6.90;90.00;;;;;;5037955;28;20055;-75
2024/04/03 00:16:24;;;;;;;3.90;1.77;;;6.90;90.10;;;;;;5063447;28;20064;-76
2024/04/03 00:18:50;;;;;;;3.75;1.90;;;6.90;90.50;;;;;;5038304;28;20061;-76
2024/04/03 00:21:18;;;;;;;2.75;1.30;;;6.90;90.30;;;;;;5037978;28;20064;-76
2024/04/03 00:23:44;;;;;;;2.97;1.50;;;7.00;90.10;;;;;;5055454;28;20048;-76
2024/04/03 00:26:10;;;;;;;2.00;1.30;;;7.10;90.20;;;;;;5065330;28;20103;-76
2024/04/03 00:28:36;;;;;;;2.95;1.33;;;7.10;90.10;;;;;;5037669;28;20150;-76
2024/04/03 00:31:02;;;;;;;4.55;1.55;;;7.20;90.00;;;;;;5038235;28;20056;-76
2024/04/03 00:33:30;;;;;;;3.65;1.50;;;7.20;89.00;;;;;;5034978;28;20049;-76
2024/04/03 00:36:00;;;;;;;1.73;1.20;;;7.30;89.50;;;;;;5032577;28;20477;-76
2024/04/03 00:38:27;;;;;;;5.93;1.98;;;7.30;89.50;;;;;;5037223;28;20045;-76
2024/04/03 00:41:00;;;;;;;3.15;1.45;;;7.30;89.40;;;;;;5054032;28;20056;-76
2024/04/03 00:43:27;;;;;;;1.63;1.27;;;7.40;89.00;;;;;;5038065;28;20048;-76
2024/04/03 00:45:57;;;;;;;3.20;1.40;;;7.40;89.00;;;;;;5037691;28;20048;-76
2024/04/03 00:48:23;;;;;;;6.95;1.10;;;7.40;89.30;;;;;;5051877;28;20044;-76
2024/04/03 00:50:53;;;;;;;1.60;1.08;;;7.50;89.40;;;;;;5037914;28;20359;-76
2024/04/03 00:53:19;;;;;;;3.28;1.20;;;7.50;89.10;;;;;;5054569;28;20052;-75
2024/04/03 00:55:45;;;;;;;2.85;1.30;;;7.60;89.10;;;;;;5030487;28;20063;-76
2024/04/03 00:58:11;;;;;;;2.55;1.10;;;7.60;88.80;;;;;;5027523;28;20045;-76
2024/04/03 01:00:37;;;;;;;1.55;1.00;;;7.70;88.90;;;;;;5037643;28;20477;-76
2024/04/03 01:03:04;;;;;;;2.90;1.23;;;7.70;88.60;;;;;;5037907;28;20078;-77
2024/04/03 01:05:33;;;;;;;2.47;1.40;;;7.80;88.40;;;;;;5054007;28;20063;-76
2024/04/03 01:07:59;;;;;;;4.72;1.10;;;7.80;87.90;;;;;;5037521;28;20075;-76
2024/04/03 01:10:26;;;;;;;1.80;1.08;;;7.90;87.60;;;;;;5037107;28;20048;-76
2024/04/03 01:12:54;;;;;;;1.55;1.05;;;7.90;86.70;;;;;;5037654;28;20114;-75
2024/04/03 01:15:20;;;;;;;2.67;1.00;;;8.00;86.70;;;;;;5022644;28;20048;-75
2024/04/03 01:17:48;;;;;;;4.57;1.02;;;8.00;86.50;;;;;;5053810;28;20381;-76
2024/04/03 01:20:16;;;;;;;1.77;1.00;;;8.00;87.50;;;;;;5054090;28;20377;-76
2024/04/03 01:22:42;;;;;;;1.52;0.80;;;8.10;87.30;;;;;;5054017;28;20400;-76
2024/04/03 01:25:09;;;;;;;1.40;0.82;;;8.10;86.90;;;;;;5053861;28;20083;-76
2024/04/03 01:27:34;;;;;;;2.95;1.00;;;8.20;86.30;;;;;;5037488;28;20361;-76
2024/04/03 01:30:02;;;;;;;2.50;1.20;;;8.20;85.50;;;;;;5037067;28;20102;-76
2024/04/03 01:32:28;;;;;;;2.53;1.17;;;8.30;84.80;;;;;;5038536;28;20420;-76
2024/04/03 01:34:56;;;;;;;5.93;0.90;;;8.30;85.50;;;;;;5053970;28;20044;-76
2024/04/03 01:37:22;;;;;;;3.35;1.30;;;8.30;85.30;;;;;;5053599;28;20064;-76
2024/04/03 01:39:48;;;;;;;1.13;0.80;;;8.30;84.70;;;;;;5037194;28;20538;-76
2024/04/03 01:42:14;;;;;;;1.25;0.90;;;8.40;84.00;;;;;;5053597;28;20075;-76
2024/04/03 01:44:40;;;;;;;2.20;1.20;;;8.40;83.50;;;;;;5040003;28;20060;-76
2024/04/03 01:47:08;;;;;;;0.88;0.88;;;8.40;83.60;;;;;;5041267;28;20113;-76
2024/04/03 01:49:36;;;;;;;2.80;0.80;;;8.40;83.90;;;;;;5043229;28;20457;-76
2024/04/03 01:52:02;;;;;;;1.95;1.60;;;8.40;84.30;;;;;;5052337;28;20049;-76
2024/04/03 01:54:30;;;;;;;1.92;1.00;;;8.50;85.20;;;;;;5057357;28;20060;-76
2024/04/03 01:56:57;;;;;;;1.75;1.10;;;8.50;84.30;;;;;;5040627;28;20519;-76
2024/04/03 01:59:22;;;;;;;1.70;1.10;;;8.50;84.30;;;;;;5037666;28;20052;-76
2024/04/03 02:01:48;;;;;;;4.95;1.10;;;8.50;83.80;;;;;;5057323;28;20469;-76
2024/04/03 02:04:14;;;;;;;2.00;1.00;;;8.50;83.50;;;;;;5057337;28;20060;-76
2024/04/03 02:06:41;;;;;;;1.63;0.80;;;8.50;82.80;;;;;;5040669;28;20056;-76
2024/04/03 02:09:07;;;;;;;4.32;1.08;;;8.50;82.00;;;;;;5040800;28;20071;-76
2024/04/03 02:11:40;;;;;;;1.88;1.23;;;8.50;81.90;;;;;;5040547;28;20052;-76
2024/04/03 02:14:09;;;;;;;3.38;1.20;;;8.60;81.00;;;;;;5056704;28;20045;-76
2024/04/03 02:16:37;;;;;;;3.33;1.00;;;8.70;79.40;;;;;;5040664;28;20056;-76
2024/04/03 02:19:05;;;;;;;2.47;1.17;;;8.70;77.60;;;;;;5042419;28;20500;-76
2024/04/03 02:21:30;;;;;;;2.13;1.00;;;8.80;76.70;;;;;;5055117;28;20082;-76
2024/04/03 02:23:56;;;;;;;2.85;1.20;;;8.80;76.20;;;;;;5040118;28;20056;-76
2024/04/03 02:26:22;;;;;;;1.98;1.13;;;8.80;76.00;;;;;;5040202;28;20060;-76
2024/04/03 02:28:48;;;;;;;1.45;0.98;;;8.70;75.70;;;;;;5040092;28;20060;-77
2024/04/03 02:31:14;;;;;;;1.98;1.00;;;8.70;75.20;;;;;;5039894;28;20059;-77
2024/04/03 02:33:40;;;;;;;1.88;0.90;;;8.70;74.70;;;;;;5057073;28;20049;-77
2024/04/03 02:36:10;;;;;;;2.35;0.90;;;8.70;75.00;;;;;;5041052;28;20136;-77
2024/04/03 02:38:36;;;;;;;1.63;1.00;;;8.70;75.00;;;;;;5041885;28;20487;-76
2024/04/03 02:41:29;;;;;;;3.25;1.20;;;8.70;74.60;;;;;;5056546;28;20048;-76
2024/04/03 02:43:55;;;;;;;2.58;1.08;;;8.60;74.30;;;;;;5039677;28;20059;-76
2024/04/03 02:46:21;;;;;;;2.45;1.08;;;8.60;74.20;;;;;;5040169;28;20052;-76
2024/04/03 02:48:47;;;;;;;2.13;1.33;;;8.60;74.50;;;;;;5039820;28;20423;-76
2024/04/03 02:51:13;;;;;;;4.22;1.20;;;8.60;75.20;;;;;;5056737;28;20381;-76
2024/04/03 02:53:38;;;;;;;2.20;1.40;;;8.60;74.30;;;;;;5039847;28;20059;-76
2024/04/03 02:56:06;;;;;;;1.98;1.00;;;8.60;73.90;;;;;;5055714;28;20049;-76
2024/04/03 02:58:38;;;;;;;3.25;1.30;;;8.50;73.80;;;;;;5025809;28;20053;-76
2024/04/03 03:01:07;;;;;;;2.67;1.30;;;8.50;74.10;;;;;;5056299;28;20509;-76
2024/04/03 03:03:34;;;;;;;4.47;1.40;;;8.50;74.20;;;;;;5039662;28;20423;-77
2024/04/03 03:06:02;;;;;;;2.78;1.05;;;8.50;74.20;;;;;;5043129;28;20061;-77
2024/04/03 03:08:30;;;;;;;2.53;1.30;;;8.40;74.10;;;;;;5056191;28;20052;-76
2024/04/03 03:10:57;;;;;;;2.90;1.67;;;8.40;74.10;;;;;;5039181;28;20090;-76
2024/04/03 03:13:26;;;;;;;4.03;1.30;;;8.40;74.40;;;;;;5039384;28;20044;-77
2024/04/03 03:15:57;;;;;;;6.60;1.70;;;8.40;74.80;;;;;;5052655;28;20075;-76
2024/04/03 03:18:25;;;;;;;3.45;1.23;;;8.30;75.50;;;;;;5039532;28;20045;-76
2024/04/03 03:20:52;;;;;;;2.10;1.38;;;8.20;76.10;;;;;;5056551;28;20048;-76
2024/04/03 03:23:18;;;;;;;2.50;1.20;;;8.20;76.50;;;;;;5039185;28;20063;-76
2024/04/03 03:25:51;;;;;;;2.15;1.10;;;8.10;76.60;;;;;;5055664;28;20060;-76
2024/04/03 03:28:20;;;;;;;3.13;1.13;;;8.00;77.10;;;;;;5079693;28;20055;-76
2024/04/03 03:30:50;;;;;;;2.08;1.10;;;8.00;77.90;;;;;;5078570;28;20040;-77
2024/04/03 03:33:17;;;;;;;1.75;1.10;;;7.90;79.50;;;;;;5039317;28;20781;-76
2024/04/03 03:35:51;;;;;;;3.03;1.48;;;7.80;81.20;;;;;;5040372;28;20044;-77
2024/04/03 03:38:17;;;;;;;8.02;1.33;;;7.80;82.20;;;;;;5056226;28;20053;-76
2024/04/03 03:40:43;;;;;;;1.55;1.10;;;7.70;81.70;;;;;;5038787;28;20150;-76
2024/04/03 03:43:09;;;;;;;8.77;1.38;;;7.60;83.40;;;;;;5055217;28;20063;-76
2024/04/03 03:45:46;;;;;;;2.90;1.10;;;7.60;83.40;;;;;;5038691;28;20542;-76
2024/04/03 03:48:13;;;;;;;5.03;1.35;;;7.50;84.00;;;;;;5038528;28;20060;-76
2024/04/03 03:53:28;;;;;;;4.43;1.10;;;7.40;85.10;;;;;;5055225;28;20056;-76
2024/04/03 03:55:54;;;;;;;4.13;1.30;;;7.30;85.90;;;;;;5038348;28;20481;-76
2024/04/03 03:58:22;;;;;;;1.85;1.33;;;7.30;86.20;;;;;;5038537;28;20063;-76
2024/04/03 04:00:49;;;;;;;1.35;1.25;;;7.20;85.80;;;;;;5038727;28;20056;-77
2024/04/03 04:03:14;;;;;;;4.10;1.27;;;7.10;86.10;;;;;;5055030;28;20064;-77
2024/04/03 04:05:40;;;;;;;4.07;1.33;;;7.10;87.90;;;;;;5055166;28;20381;-77
2024/04/03 04:08:06;;;;;;;5.35;1.70;;;7.00;88.30;;;;;;5037178;28;20057;-78
2024/04/03 04:10:32;;;;;;;2.97;1.45;;;6.90;89.30;;;;;;5038402;28;20048;-77
2024/04/03 04:12:58;;;;;;;3.17;1.35;;;6.80;89.50;;;;;;5038435;28;20389;-77
2024/04/03 04:15:26;;;;;;;2.83;1.48;;;6.80;90.50;;;;;;5038112;28;20048;-76
2024/04/03 04:17:52;;;;;;;2.80;1.45;;;6.70;90.10;;;;;;5051861;28;20067;-77
2024/04/03 04:20:19;;;;;;;5.20;1.20;;;6.70;90.20;;;;;;5054788;28;20063;-78
2024/04/03 04:22:46;;;;;;;4.45;1.45;;;6.60;90.10;;;;;;5053843;28;20059;-77
2024/04/03 04:25:12;;;;;;;2.33;1.42;;;6.60;90.50;;;;;;5038025;28;20520;-76
2024/04/03 04:27:40;;;;;;;3.35;1.50;;;6.60;90.40;;;;;;5054283;28;20056;-78
2024/04/03 04:30:07;;;;;;;64.55;27.05;;;6.50;90.60;;;;;;5037503;28;20048;-77
2024/04/03 04:32:33;;;;;;;12.70;6.50;;;6.50;91.40;;;;;;5037914;28;20389;-77
2024/04/03 04:34:59;;;;;;;4.90;2.83;;;6.40;92.20;;;;;;5054340;28;20063;-78
2024/04/03 04:37:26;;;;;;;5.22;2.85;;;6.40;92.30;;;;;;5037352;28;20064;-77
2024/04/03 04:39:52;;;;;;;4.38;2.22;;;6.40;92.40;;;;;;5053483;28;20481;-76
2024/04/03 04:42:20;;;;;;;3.17;2.40;;;6.30;92.00;;;;;;5037759;28;20489;-77
2024/04/03 04:44:49;;;;;;;5.28;2.42;;;6.30;92.30;;;;;;5061189;28;20059;-77
2024/04/03 04:47:15;;;;;;;3.58;2.28;;;6.30;92.60;;;;;;5045467;28;20377;-76
2024/04/03 04:49:41;;;;;;;3.55;2.15;;;6.20;92.60;;;;;;5037641;28;20044;-77
2024/04/03 04:52:07;;;;;;;3.05;2.40;;;6.20;92.70;;;;;;5053791;28;20109;-77
2024/04/03 04:54:33;;;;;;;6.40;2.50;;;6.20;92.90;;;;;;5037595;28;20059;-77
2024/04/03 04:57:01;;;;;;;4.78;2.53;;;6.20;93.10;;;;;;5054506;28;20133;-77
2024/04/03 04:59:27;;;;;;;3.92;2.28;;;6.20;92.70;;;;;;5038098;28;20052;-77
2024/04/03 05:01:53;;;;;;;4.35;2.42;;;6.20;92.80;;;;;;5037791;28;20067;-78
2024/04/03 05:04:19;;;;;;;6.15;2.78;;;6.10;92.90;;;;;;5086167;28;20057;-76
2024/04/03 05:06:45;;;;;;;4.00;2.53;;;6.10;92.40;;;;;;5054213;28;20113;-76
2024/04/03 05:09:13;;;;;;;4.55;2.53;;;6.10;92.50;;;;;;5039935;28;20052;-76
2024/04/03 05:11:39;;;;;;;8.60;2.40;;;6.20;92.50;;;;;;5037631;28;20049;-76
2024/04/03 05:14:05;;;;;;;4.75;2.20;;;6.20;92.50;;;;;;5053904;28;20089;-76
2024/04/03 05:16:31;;;;;;;6.43;2.33;;;6.20;92.90;;;;;;5054031;28;20052;-77
2024/04/03 05:18:56;;;;;;;5.38;2.30;;;6.20;92.90;;;;;;5055770;28;20052;-76
2024/04/03 05:21:22;;;;;;;3.47;1.90;;;6.30;92.00;;;;;;5041445;28;20132;-77
2024/04/03 05:23:51;;;;;;;5.63;2.20;;;6.30;92.50;;;;;;5042028;28;20362;-76
2024/04/03 05:26:17;;;;;;;4.90;1.92;;;6.40;92.60;;;;;;5058173;28;20056;-77
2024/04/03 05:28:43;;;;;;;6.95;2.10;;;6.40;92.20;;;;;;5041418;28;20056;-76
2024/04/03 05:31:13;;;;;;;3.13;2.10;;;6.50;92.00;;;;;;5058024;28;20121;-76
2024/04/03 05:33:42;;;;;;;4.43;2.35;;;6.50;92.20;;;;;;5041069;28;20048;-76
2024/04/03 05:36:11;;;;;;;6.57;2.10;;;6.60;92.20;;;;;;5082182;28;20453;-76
2024/04/03 05:38:38;;;;;;;4.20;1.63;;;6.70;92.00;;;;;;5040329;28;20053;-76
2024/04/03 05:41:04;;;;;;;7.38;1.90;;;6.80;92.10;;;;;;5040108;28;20044;-76
2024/04/03 05:43:31;;;;;;;6.05;2.10;;;6.90;91.80;;;;;;5039366;28;20040;-76
2024/04/03 05:45:57;;;;;;;5.85;1.98;;;7.00;91.70;;;;;;5039369;28;20469;-77
2024/04/03 05:48:27;;;;;;;5.15;2.30;;;7.10;92.00;;;;;;5057800;28;20072;-77
2024/04/03 05:51:03;;;;;;;6.53;3.72;;;7.20;91.40;;;;;;5039856;28;20048;-77
2024/04/03 05:53:30;;;;;;;12.23;5.05;;;7.40;90.90;;;;;;5039041;28;20122;-77
2024/04/03 05:55:57;;;;;;;11.38;4.57;;;7.50;91.10;;;;;;5081221;28;20052;-77
2024/04/03 05:58:24;;;;;;;5.38;3.80;;;7.60;90.90;;;;;;5056635;28;20052;-77
2024/04/03 06:00:55;;;;;;;14.00;3.47;;;7.80;90.70;;;;;;5038352;28;20461;-77
2024/04/03 06:03:21;;;;;;;5.47;2.90;;;7.90;90.80;;;;;;5040702;28;20063;-77
2024/04/03 06:05:53;;;;;;;7.82;2.88;;;8.10;90.70;;;;;;5038912;28;20045;-77
2024/04/03 06:08:21;;;;;;;8.43;2.63;;;8.30;90.50;;;;;;5040603;28;20049;-77
2024/04/03 06:10:48;;;;;;;6.18;2.40;;;8.40;89.80;;;;;;5040204;28;20405;-77
2024/04/03 06:13:14;;;;;;;7.10;2.47;;;8.50;88.50;;;;;;5038078;28;20528;-77
2024/04/03 06:15:40;;;;;;;7.40;3.15;;;8.70;88.40;;;;;;5039404;28;20048;-77
2024/04/03 06:18:08;;;;;;;17.95;4.22;;;8.80;88.10;;;;;;5039362;28;20064;-77
2024/04/03 06:20:34;;;;;;;13.38;4.15;;;8.90;87.60;;;;;;5055837;28;20539;-77
2024/04/03 06:22:59;;;;;;;9.48;4.55;;;9.10;86.90;;;;;;5039610;28;20056;-77
2024/04/03 06:25:26;;;;;;;10.63;4.35;;;9.20;86.10;;;;;;5040992;28;20060;-77
2024/04/03 06:27:56;;;;;;;11.77;5.30;;;9.30;85.40;;;;;;5055880;28;20358;-77
2024/04/03 06:30:26;;;;;;;14.40;4.18;;;9.50;84.50;;;;;;5053846;28;20456;-77
2024/04/03 06:32:52;;;;;;;10.25;3.33;;;9.60;83.30;;;;;;5039603;28;20056;-77
2024/04/03 06:35:18;;;;;;;12.73;3.30;;;9.70;81.10;;;;;;5039053;28;20087;-77
2024/04/03 06:37:44;;;;;;;8.32;3.10;;;9.80;79.80;;;;;;5039003;28;20443;-77
2024/04/03 06:40:10;;;;;;;7.18;2.78;;;9.90;79.70;;;;;;5032827;28;20159;-77
2024/04/03 06:42:37;;;;;;;4.35;2.30;;;10.10;78.70;;;;;;5054593;28;20056;-77
2024/04/03 06:45:04;;;;;;;13.05;2.30;;;10.20;78.20;;;;;;5053540;28;20056;-77
2024/04/03 06:47:30;;;;;;;7.07;2.15;;;10.30;76.10;;;;;;5039378;28;20064;-77
2024/04/03 06:49:56;;;;;;;6.55;1.67;;;10.40;75.00;;;;;;5055698;28;20114;-77
2024/04/03 06:52:26;;;;;;;3.65;1.92;;;10.50;73.30;;;;;;5055791;28;20056;-77
2024/04/03 06:54:54;;;;;;;2.92;1.40;;;10.70;71.90;;;;;;5041167;28;20438;-78
2024/04/03 06:57:21;;;;;;;4.47;1.65;;;10.80;71.30;;;;;;5039477;28;20423;-77
2024/04/03 06:59:47;;;;;;;5.78;1.85;;;10.90;71.40;;;;;;5055916;28;20075;-77
2024/04/03 07:02:13;;;;;;;4.28;1.40;;;11.10;70.90;;;;;;5039517;28;20064;-78
2024/04/03 07:04:39;;;;;;;6.03;1.98;;;11.20;70.90;;;;;;5038976;28;20068;-77
2024/04/03 07:07:08;;;;;;;6.25;1.30;;;11.30;70.00;;;;;;5055338;28;20060;-77
2024/04/03 07:09:35;;;;;;;6.10;1.60;;;11.30;69.10;;;;;;5055740;28;20056;-77
2024/04/03 07:12:03;;;;;;;5.85;1.52;;;11.40;68.90;;;;;;5040659;28;20563;-77
2024/04/03 07:14:29;;;;;;;6.15;1.67;;;11.50;68.30;;;;;;5055284;28;20469;-77
2024/04/03 07:16:55;;;;;;;3.22;1.50;;;11.60;68.00;;;;;;5038761;28;20056;-78
2024/04/03 07:19:21;;;;;;;5.38;1.88;;;11.70;67.50;;;;;;5055748;28;20089;-77
2024/04/03 07:21:51;;;;;;;9.02;1.60;;;11.80;67.10;;;;;;5055391;28;20049;-77
2024/04/03 07:24:17;;;;;;;6.43;1.73;;;11.90;66.70;;;;;;5052901;28;20056;-78
2024/04/03 07:26:45;;;;;;;4.00;1.65;;;12.00;66.20;;;;;;5055859;28;20057;-77
2024/04/03 07:29:14;;;;;;;3.40;1.75;;;12.10;66.10;;;;;;5068978;28;20044;-77
2024/04/03 07:31:43;;;;;;;2.63;1.73;;;12.30;66.70;;;;;;5038703;28;20056;-78
2024/04/03 07:34:09;;;;;;;3.83;2.00;;;12.40;65.60;;;;;;5055114;28;20063;-77
2024/04/03 07:36:35;;;;;;;7.00;2.08;;;12.50;65.40;;;;;;5054833;28;20132;-77
2024/04/03 07:39:03;;;;;;;9.05;2.58;;;12.70;65.20;;;;;;5038870;28;20106;-78
2024/04/03 07:41:31;;;;;;;4.28;2.15;;;12.80;64.40;;;;;;5038557;28;20102;-77
2024/04/03 07:43:57;;;;;;;9.10;2.33;;;13.00;62.40;;;;;;5052617;28;20406;-78
2024/04/03 07:46:25;;;;;;;5.18;2.38;;;13.00;61.10;;;;;;5038441;28;20049;-78
2024/04/03 07:48:53;;;;;;;5.97;2.25;;;13.10;60.80;;;;;;5038942;28;20098;-78
2024/04/03 07:51:19;;;;;;;6.68;2.30;;;13.20;59.60;;;;;;5054782;28;20075;-77
2024/04/03 07:53:45;;;;;;;7.03;2.13;;;13.30;60.10;;;;;;5038088;28;20461;-77
2024/04/03 07:56:13;;;;;;;7.00;2.58;;;13.40;58.60;;;;;;5038400;28;20063;-78
2024/04/03 07:58:42;;;;;;;6.40;2.05;;;13.50;58.10;;;;;;5054754;28;20052;-78
2024/04/03 08:01:08;;;;;;;6.88;1.77;;;13.60;58.00;;;;;;5035380;28;20083;-77
2024/04/03 08:03:35;;;;;;;5.00;1.42;;;13.80;57.70;;;;;;5037888;28;20465;-77
2024/04/03 08:06:00;;;;;;;3.72;1.55;;;13.90;56.00;;;;;;5037988;28;20071;-78
2024/04/03 08:08:28;;;;;;;4.10;1.25;;;14.00;55.00;;;;;;5037797;28;20472;-78
2024/04/03 08:11:03;;;;;;;3.05;1.40;;;14.10;54.40;;;;;;5054400;28;20048;-78
2024/04/03 08:13:30;;;;;;;4.90;1.85;;;14.30;54.50;;;;;;5041069;28;20053;-78
2024/04/03 08:16:04;;;;;;;2.60;1.52;;;14.40;54.80;;;;;;5037838;28;20114;-78
2024/04/03 08:18:30;;;;;;;3.85;1.58;;;14.60;54.80;;;;;;5053882;28;20044;-78
2024/04/03 08:21:01;;;;;;;5.38;1.92;;;14.70;54.10;;;;;;5053740;28;20098;-78
2024/04/03 08:23:27;;;;;;;3.78;1.83;;;14.60;53.50;;;;;;5054033;28;20056;-77
2024/04/03 08:25:52;;;;;;;7.15;1.88;;;14.70;54.30;;;;;;5054014;28;20063;-77
2024/04/03 08:28:18;;;;;;;5.88;1.85;;;15.00;53.80;;;;;;5038480;28;20103;-78
2024/04/03 08:30:44;;;;;;;5.78;1.73;;;15.10;53.40;;;;;;5037226;28;20044;-78
2024/04/03 08:33:10;;;;;;;5.32;1.60;;;15.20;53.00;;;;;;5037548;28;20052;-78
2024/04/03 08:35:36;;;;;;;5.20;1.70;;;15.30;53.60;;;;;;5035941;28;20076;-78
2024/04/03 08:38:02;;;;;;;6.85;1.55;;;15.50;53.10;;;;;;5053557;28;20049;-78
2024/04/03 08:40:28;;;;;;;2.50;1.10;;;15.70;52.30;;;;;;5067328;28;20053;-78
2024/04/03 08:42:54;;;;;;;5.05;1.65;;;15.80;50.90;;;;;;5037281;28;20476;-78
2024/04/03 08:45:21;;;;;;;6.20;1.33;;;15.80;50.90;;;;;;5037316;28;20118;-78
2024/04/03 08:47:51;;;;;;;9.27;1.63;;;16.00;51.00;;;;;;5053975;28;20052;-78
2024/04/03 08:50:17;;;;;;;5.25;1.73;;;16.20;50.90;;;;;;5037097;28;20059;-78
2024/04/03 08:52:45;;;;;;;4.07;1.52;;;16.40;51.70;;;;;;5036401;28;20057;-78
2024/04/03 08:55:14;;;;;;;7.40;1.60;;;16.50;50.70;;;;;;5036930;28;20541;-78
2024/04/03 08:57:40;;;;;;;6.45;1.48;;;16.60;50.50;;;;;;5053056;28;20063;-78
2024/04/03 09:00:08;;;;;;;2.80;1.15;;;16.80;49.60;;;;;;5040305;28;20057;-78
2024/04/03 09:02:34;;;;;;;2.95;1.30;;;16.80;49.30;;;;;;5052987;28;20056;-77
2024/04/03 09:05:00;;;;;;;4.75;1.40;;;17.00;50.10;;;;;;5036866;28;20060;-78
2024/04/03 09:07:26;;;;;;;3.17;1.15;;;17.10;49.70;;;;;;5035040;28;20055;-78
2024/04/03 09:09:54;;;;;;;2.80;1.35;;;17.20;48.50;;;;;;5036664;28;20060;-78
2024/04/03 09:12:24;;;;;;;2.28;1.23;;;17.40;49.00;;;;;;5036666;28;20060;-78
2024/04/03 09:15:01;;;;;;;7.07;1.42;;;17.50;48.80;;;;;;5054496;28;20461;-77
2024/04/03 09:17:27;;;;;;;3.58;1.48;;;17.70;48.50;;;;;;5037255;28;20118;-77
2024/04/03 09:19:53;;;;;;;9.23;1.25;;;17.80;49.10;;;;;;5053772;28;20373;-77
2024/04/03 09:22:19;;;;;;;5.75;1.73;;;17.90;47.60;;;;;;5037158;28;20362;-77
2024/04/03 09:24:44;;;;;;;2.72;1.42;;;18.10;48.50;;;;;;5036830;28;20138;-77
2024/04/03 09:27:10;;;;;;;4.70;1.98;;;18.30;48.30;;;;;;5037236;28;20056;-77
2024/04/03 09:29:39;;;;;;;6.80;2.17;;;18.50;47.60;;;;;;5038327;28;20049;-79
2024/04/03 09:32:07;;;;;;;9.02;2.85;;;18.60;48.00;;;;;;5037265;28;20162;-77
2024/04/03 09:34:34;;;;;;;5.97;2.72;;;18.70;47.80;;;;;;5049524;28;20068;-77
2024/04/03 09:37:02;;;;;;;8.30;3.65;;;18.80;47.80;;;;;;5036682;28;20060;-79
2024/04/03 09:39:31;;;;;;;9.13;3.08;;;18.90;47.20;;;;;;5053260;28;20056;-77
2024/04/03 09:42:05;;;;;;;10.20;3.40;;;19.00;48.00;;;;;;5045399;28;20063;-77
2024/04/03 09:44:38;;;;;;;7.47;2.80;;;19.10;48.70;;;;;;5036999;28;20056;-77
2024/04/03 09:47:13;;;;;;;6.30;2.33;;;19.20;48.40;;;;;;5053379;28;20137;-77
2024/04/03 09:49:47;;;;;;;;;;;19.40;48.70;;;;;;5051608;28;20052;-77
2024/04/03 09:52:16;;;;;;;3.90;1.48;;;19.50;48.60;;;;;;5052111;28;19921;-77
2024/04/03 09:54:43;;;;;;;5.13;1.52;;;19.70;48.60;;;;;;5052695;28;20205;-77
2024/04/03 09:57:10;;;;;;;4.53;1.20;;;19.90;49.10;;;;;;5036550;28;20385;-77
2024/04/03 09:59:37;;;;;;;6.72;1.42;;;20.00;48.60;;;;;;5055992;28;20051;-77
2024/04/03 10:02:03;;;;;;;4.10;1.25;;;20.10;49.50;;;;;;5036265;28;20469;-78
2024/04/03 10:04:37;;;;;;;8.45;1.75;;;20.30;49.00;;;;;;5054049;28;20106;-77
2024/04/03 10:07:03;;;;;;;7.00;1.70;;;20.40;49.00;;;;;;5056485;28;20055;-77
2024/04/03 10:09:30;;;;;;;4.35;1.20;;;20.40;48.70;;;;;;5039824;28;20048;-77
2024/04/03 10:12:00;;;;;;;4.72;1.15;;;20.40;47.90;;;;;;5055867;28;20060;-77
2024/04/03 10:14:27;;;;;;;3.55;1.10;;;20.40;47.10;;;;;;5057211;28;20374;-77
2024/04/03 10:16:54;;;;;;;5.50;1.33;;;20.40;48.10;;;;;;5057130;28;20057;-78
2024/04/03 10:19:21;;;;;;;5.97;1.05;;;20.40;47.80;;;;;;5039833;28;20049;-79
2024/04/03 10:21:48;;;;;;;5.78;1.50;;;20.40;47.60;;;;;;5047417;28;20300;-80
2024/04/03 10:24:14;;;;;;;2.97;1.10;;;20.40;46.70;;;;;;5037414;28;20048;-79
2024/04/03 10:26:40;;;;;;;4.85;1.10;;;20.40;46.80;;;;;;5056005;28;20104;-80
2024/04/03 10:29:06;;;;;;;5.85;1.45;;;20.40;47.00;;;;;;5062098;28;20051;-79
2024/04/03 10:31:32;;;;;;;3.40;1.20;;;20.40;46.80;;;;;;5040612;28;20061;-77
2024/04/03 10:33:58;;;;;;;2.20;0.93;;;20.40;46.10;;;;;;5039838;28;20049;-80
2024/04/03 10:36:24;;;;;;;5.10;1.15;;;20.30;45.00;;;;;;5039855;28;20462;-79
2024/04/03 10:38:50;;;;;;;3.95;1.00;;;20.30;45.60;;;;;;5069825;28;20075;-79
2024/04/03 10:41:22;;;;;;;3.55;1.30;;;20.30;45.60;;;;;;5039178;28;20048;-79
2024/04/03 10:43:49;;;;;;;3.30;1.17;;;20.30;46.10;;;;;;5038991;28;20420;-79
2024/04/03 10:46:27;;;;;;;6.63;1.58;;;20.30;45.80;;;;;;5039208;28;20049;-79
2024/04/03 10:48:55;;;;;;;2.20;1.17;;;20.30;45.80;;;;;;5069296;28;20056;-80
2024/04/03 10:51:21;;;;;;;2.95;1.13;;;20.30;44.50;;;;;;5055511;28;20056;-80
2024/04/03 10:53:48;;;;;;;1.98;0.88;;;20.30;44.30;;;;;;5055764;28;20056;-79
2024/04/03 10:56:18;;;;;;;1.95;0.82;;;20.30;43.40;;;;;;5039086;28;20045;-79
2024/04/03 10:58:44;;;;;;;2.28;0.85;;;20.30;44.30;;;;;;5029397;28;20053;-79
2024/04/03 11:01:14;;;;;;;2.40;0.70;;;20.30;43.80;;;;;;5040418;28;20118;-79
2024/04/03 11:03:42;;;;;;;2.47;0.88;;;20.30;43.40;;;;;;5037449;28;20052;-80
2024/04/03 11:06:12;;;;;;;2.55;0.70;;;20.30;42.30;;;;;;5055272;28;20056;-78
2024/04/03 11:08:39;;;;;;;4.97;0.90;;;20.20;43.20;;;;;;5055446;28;20060;-79
2024/04/03 11:11:10;;;;;;;4.05;0.70;;;20.30;43.20;;;;;;5038592;28;20397;-80
2024/04/03 11:13:45;;;;;;;2.33;0.98;;;20.30;43.30;;;;;;5055163;28;20048;-79
2024/04/03 11:16:12;;;;;;;2.08;0.50;;;20.20;43.00;;;;;;5054670;28;20048;-79
2024/04/03 11:18:38;;;;;;;1.05;0.52;;;20.10;42.40;;;;;;5051613;28;20052;-80
2024/04/03 11:21:06;;;;;;;1.92;0.70;;;20.10;42.90;;;;;;5055055;28;20485;-79
2024/04/03 11:23:40;;;;;;;1.77;1.00;;;20.10;43.90;;;;;;5033464;28;20114;-79
2024/04/03 11:26:06;;;;;;;1.30;0.77;;;20.10;43.40;;;;;;5038513;28;20110;-79
2024/04/03 11:28:33;;;;;;;2.22;0.68;;;20.10;42.60;;;;;;5034670;28;20060;-80
2024/04/03 11:30:59;;;;;;;2.15;0.80;;;20.10;42.70;;;;;;5037871;28;20064;-79
2024/04/03 11:33:27;;;;;;;1.48;0.73;;;20.10;42.40;;;;;;5037641;28;20052;-80
2024/04/03 11:35:54;;;;;;;2.25;0.68;;;20.20;41.40;;;;;;5038091;28;20473;-79
2024/04/03 11:38:21;;;;;;;2.53;0.68;;;20.20;41.20;;;;;;5030285;28;20048;-79
2024/04/03 11:40:50;;;;;;;2.25;0.55;;;20.20;42.20;;;;;;5035431;28;20947;-79
2024/04/03 11:43:20;;;;;;;0.90;0.52;;;20.30;43.20;;;;;;5055007;28;20403;-77
2024/04/03 11:45:48;;;;;;;1.63;0.70;;;20.30;41.90;;;;;;5038587;28;20056;-77
2024/04/03 11:48:14;;;;;;;2.17;0.70;;;20.30;41.80;;;;;;5055232;28;20437;-77
2024/04/03 11:50:40;;;;;;;2.63;0.85;;;20.30;41.20;;;;;;5050885;28;20052;-79
2024/04/03 11:53:06;;;;;;;4.95;0.80;;;20.30;41.20;;;;;;5037789;28;20106;-77
2024/04/03 11:55:34;;;;;;;3.20;0.90;;;20.20;39.80;;;;;;5054944;28;20477;-77
2024/04/03 11:58:00;;;;;;;5.97;0.70;;;20.20;42.00;;;;;;5054255;28;20480;-77
2024/04/03 12:00:28;;;;;;;2.70;0.68;;;20.20;42.90;;;;;;5038158;28;20067;-77
2024/04/03 12:02:56;;;;;;;2.70;0.77;;;20.20;43.20;;;;;;5040490;28;20052;-78
2024/04/03 12:05:22;;;;;;;4.97;0.80;;;20.20;42.80;;;;;;5038190;28;20052;-77
2024/04/03 12:07:49;;;;;;;4.20;0.80;;;20.20;43.50;;;;;;5038019;28;20516;-77
2024/04/03 12:10:15;;;;;;;4.53;0.75;;;20.20;43.80;;;;;;5054475;28;20045;-77
2024/04/03 12:12:41;;;;;;;1.75;0.70;;;20.20;44.10;;;;;;5037791;28;20470;-77
2024/04/03 12:15:07;;;;;;;4.07;0.85;;;20.10;43.60;;;;;;5079471;28;20386;-77
2024/04/03 12:17:34;;;;;;;2.35;0.68;;;20.00;44.10;;;;;;5037905;28;20052;-77
2024/04/03 12:20:13;;;;;;;3.30;0.85;;;19.90;44.10;;;;;;5050472;28;20052;-78
2024/04/03 12:22:41;;;;;;;2.15;0.70;;;19.80;45.20;;;;;;5048694;28;20060;-77
2024/04/03 12:25:07;;;;;;;2.28;0.90;;;19.70;45.40;;;;;;5037456;28;20388;-77
2024/04/03 12:27:33;;;;;;;3.80;1.05;;;19.50;43.50;;;;;;5045136;28;20060;-77
2024/04/03 12:29:58;;;;;;;3.60;1.10;;;19.40;44.90;;;;;;5037118;28;20084;-77
2024/04/03 12:32:24;;;;;;;3.95;1.10;;;19.20;44.90;;;;;;5053083;28;20532;-77
2024/04/03 12:34:52;;;;;;;4.20;0.98;;;19.10;44.80;;;;;;5038725;28;20056;-77
2024/04/03 12:37:18;;;;;;;4.20;0.90;;;19.00;46.70;;;;;;5035422;28;20053;-77
2024/04/03 12:39:44;;;;;;;4.95;0.80;;;18.90;47.10;;;;;;5037812;28;20380;-77
2024/04/03 12:42:10;;;;;;;5.05;0.93;;;18.90;46.30;;;;;;5054116;28;20056;-77
2024/04/03 12:44:37;;;;;;;4.05;1.25;;;18.90;47.00;;;;;;5037674;28;20542;-77
2024/04/03 12:47:06;;;;;;;3.30;1.15;;;18.90;48.00;;;;;;5038370;28;20052;-77
2024/04/03 12:49:34;;;;;;;4.53;1.42;;;18.90;49.00;;;;;;5054208;28;20122;-77
2024/04/03 12:52:00;;;;;;;2.70;0.98;;;18.80;48.90;;;;;;5037829;28;20056;-77
2024/04/03 12:54:28;;;;;;;2.97;1.42;;;18.90;48.90;;;;;;5037561;28;20070;-77
2024/04/03 12:56:59;;;;;;;3.38;1.10;;;18.90;48.40;;;;;;5034574;28;20361;-77